Time;durP1;ratioP1;P1;durP2;ratioP2;P2;SDS_P1;SDS_P2;PMS_P1;PMS_P2;Temp;Humidity;BMP_temperature;BMP_pressure;BME280_temperature;BME280_humidity;BME280_pressure;Samples;Min_cycle;Max_cycle;Signal;HPM_P1;HPM_P2
2024/01/01 00:01:38;;;;;;;71.50;53.27;;;;;;;3.78;100.00;152334.97;4994241;28;20821;-76
2024/01/01 00:04:05;;;;;;;58.50;43.93;;;;;;;3.78;100.00;152333.69;4988883;28;20489;-77
2024/01/01 00:06:32;;;;;;;65.70;46.03;;;;;;;3.78;100.00;152334.97;4991628;28;20461;-76
2024/01/01 00:08:58;;;;;;;58.57;41.50;;;;;;;3.77;100.00;152332.38;4976839;28;21084;-76
2024/01/01 00:11:25;;;;;;;58.20;42.20;;;;;;;3.82;100.00;152343.97;4990497;28;20457;-76
2024/01/01 00:13:53;;;;;;;52.37;38.67;;;;;;;3.87;100.00;152356.81;4984426;28;20883;-76
2024/01/01 00:16:19;;;;;;;56.97;40.60;;;;;;;3.89;100.00;152363.25;4982435;28;20497;-76
2024/01/01 00:18:47;;;;;;;44.87;32.27;;;;;;;3.91;100.00;152367.16;4991878;28;20504;-76
2024/01/01 00:21:13;;;;;;;43.47;33.00;;;;;;;3.93;100.00;152372.28;4989941;28;20908;-76
2024/01/01 00:23:40;;;;;;;49.57;32.27;;;;;;;3.96;100.00;152381.31;4980556;28;20564;-75
2024/01/01 00:26:06;;;;;;;35.07;26.13;;;;;;;3.99;100.00;152387.75;4994527;28;20429;-75
2024/01/01 00:28:33;;;;;;;30.73;22.07;;;;;;;4.01;100.00;152392.91;4994775;28;20449;-75
2024/01/01 00:31:01;;;;;;;27.23;19.00;;;;;;;4.04;100.00;152401.94;4997014;28;20459;-76
2024/01/01 00:33:27;;;;;;;20.73;16.90;;;;;;;4.08;100.00;152410.91;4998551;28;20449;-76
2024/01/01 00:35:54;;;;;;;22.90;15.30;;;;;;;4.11;100.00;152419.94;5008458;28;20915;-80
2024/01/01 00:38:20;;;;;;;21.70;15.43;;;;;;;4.13;100.00;152425.09;4993348;28;20555;-81
2024/01/01 00:40:47;;;;;;;21.03;14.73;;;;;;;4.16;100.00;152432.81;4986328;28;20468;-80
2024/01/01 00:43:14;;;;;;;18.77;13.20;;;;;;;4.20;100.00;152443.16;4974485;28;20568;-80
2024/01/01 00:45:40;;;;;;;22.53;15.13;;;;;;;4.23;100.00;152449.59;4993362;28;20433;-80
2024/01/01 00:48:09;;;;;;;19.60;13.03;;;;;;;4.27;100.00;152459.88;5010565;28;20480;-80
2024/01/01 00:50:35;;;;;;;15.00;11.53;;;;;;;4.28;100.00;152462.47;5001672;28;21000;-80
2024/01/01 00:53:03;;;;;;;16.20;11.10;;;;;;;4.29;100.00;152466.31;4987179;28;20453;-81
2024/01/01 00:55:31;;;;;;;14.10;10.17;;;;;;;4.32;100.00;152474.03;4989630;28;20816;-80
2024/01/01 00:57:58;;;;;;;13.73;10.03;;;;;;;4.31;100.00;152471.44;4992839;28;20446;-80
2024/01/01 01:00:24;;;;;;;15.60;10.43;;;;;;;4.32;100.00;152472.75;4990286;28;20856;-80
2024/01/01 01:02:51;;;;;;;14.27;10.50;;;;;;;4.31;100.00;152471.44;4986446;28;20483;-81
2024/01/01 01:05:19;;;;;;;16.27;12.20;;;;;;;4.28;100.00;152463.75;5005955;28;20459;-81
2024/01/01 01:07:46;;;;;;;16.70;11.90;;;;;;;4.27;100.00;152459.88;4988803;28;20845;-81
2024/01/01 01:10:13;;;;;;;11.20;8.87;;;;;;;4.23;100.00;152450.88;4990102;28;20450;-82
2024/01/01 01:12:39;;;;;;;16.10;11.50;;;;;;;4.23;100.00;152450.88;4980889;28;20453;-82
2024/01/01 01:15:06;;;;;;;18.03;11.40;;;;;;;4.23;100.00;152449.59;4983829;28;20446;-81
2024/01/01 01:17:32;;;;;;;15.27;11.30;;;;;;;4.23;100.00;152450.88;4981666;28;20461;-81
2024/01/01 01:19:59;;;;;;;17.37;12.00;;;;;;;4.22;100.00;152448.28;4980728;28;20450;-81
2024/01/01 01:22:27;;;;;;;13.67;9.37;;;;;;;4.21;100.00;152445.69;5001888;28;20603;-82
2024/01/01 01:24:53;;;;;;;14.07;9.17;;;;;;;4.23;100.00;152449.59;5006430;28;20579;-82
2024/01/01 01:27:20;;;;;;;14.30;10.10;;;;;;;4.23;100.00;152449.59;5008201;28;20863;-81
2024/01/01 01:29:46;;;;;;;13.10;9.50;;;;;;;4.23;100.00;152449.59;4988609;28;20514;-81
2024/01/01 01:32:13;;;;;;;12.30;8.70;;;;;;;4.23;100.00;152450.88;4999299;28;20456;-81
2024/01/01 01:34:39;;;;;;;13.77;8.70;;;;;;;4.27;100.00;152459.88;5017107;28;20460;-81
2024/01/01 01:37:06;;;;;;;12.53;8.47;;;;;;;4.30;100.00;152467.59;5000284;28;20437;-82
2024/01/01 01:39:35;;;;;;;14.23;7.80;;;;;;;4.34;100.00;152477.94;4990625;28;20460;-80
2024/01/01 01:42:02;;;;;;;12.00;8.93;;;;;;;4.37;100.00;152485.63;5008532;28;20453;-81
2024/01/01 01:44:29;;;;;;;11.57;8.57;;;;;;;4.36;100.00;152483.06;4990908;28;20481;-77
2024/01/01 01:46:56;;;;;;;11.50;8.93;;;;;;;4.36;100.00;152483.06;4991456;28;20799;-77
2024/01/01 01:49:23;;;;;;;11.63;7.30;;;;;;;4.35;100.00;152479.19;5001059;28;20514;-77
2024/01/01 01:51:49;;;;;;;8.67;6.40;;;;;;;4.32;100.00;152472.75;5005765;28;20444;-76
2024/01/01 01:54:17;;;;;;;9.90;7.53;;;;;;;4.34;100.00;152476.63;5009087;28;20983;-77
2024/01/01 01:56:45;;;;;;;10.93;7.20;;;;;;;4.32;100.00;152474.03;4992559;28;20511;-77
2024/01/01 01:59:12;;;;;;;8.00;6.27;;;;;;;4.28;100.00;152463.75;4993089;28;20437;-77
2024/01/01 02:01:40;;;;;;;10.30;6.70;;;;;;;4.27;100.00;152459.88;4998951;28;20461;-77
2024/01/01 02:04:06;;;;;;;12.73;7.43;;;;;;;4.24;100.00;152452.13;5008816;28;20473;-77
2024/01/01 02:06:33;;;;;;;9.23;7.03;;;;;;;4.25;100.00;152456.03;5008908;28;21018;-76
2024/01/01 02:08:59;;;;;;;9.03;6.83;;;;;;;4.26;100.00;152457.31;5010862;28;20459;-77
2024/01/01 02:11:26;;;;;;;7.60;6.20;;;;;;;4.26;100.00;152458.56;5003152;28;20479;-76
2024/01/01 02:14:07;;;;;;;9.60;6.37;;;;;;;4.26;100.00;152458.56;5001210;28;20453;-77
2024/01/01 02:16:34;;;;;;;8.27;6.10;;;;;;;4.27;100.00;152459.88;4996238;28;20873;-77
2024/01/01 02:19:00;;;;;;;12.73;6.67;;;;;;;4.25;100.00;152454.72;5000321;28;20471;-77
2024/01/01 02:21:27;;;;;;;10.60;6.13;;;;;;;4.26;100.00;152458.56;5003125;28;20460;-77
2024/01/01 02:23:56;;;;;;;8.67;5.67;;;;;;;4.23;100.00;152449.59;4988974;28;20489;-77
2024/01/01 02:26:22;;;;;;;7.47;6.33;;;;;;;4.23;100.00;152449.59;5004284;28;20449;-77
2024/01/01 02:28:52;;;;;;;8.47;6.37;;;;;;;4.25;100.00;152456.03;4983406;28;20551;-77
2024/01/01 02:31:19;;;;;;;7.60;6.30;;;;;;;4.23;100.00;152450.88;4989086;28;20454;-77
2024/01/01 02:33:46;;;;;;;7.53;6.10;;;;;;;4.23;100.00;152449.59;4989561;28;20844;-76
2024/01/01 02:36:12;;;;;;;8.47;5.80;;;;;;;4.23;100.00;152449.59;5004148;28;20441;-77
2024/01/01 02:38:39;;;;;;;9.77;6.60;;;;;;;4.22;100.00;152447.00;4982266;28;20465;-77
2024/01/01 02:41:07;;;;;;;8.03;5.97;;;;;;;4.20;100.00;152441.84;4999063;28;20438;-79
2024/01/01 02:43:34;;;;;;;11.63;6.30;;;;;;;4.18;100.00;152437.97;5013189;23;20494;-77
2024/01/01 02:46:02;;;;;;;9.37;6.50;;;;;;;4.18;100.00;152436.72;4956137;28;20446;-76
2024/01/01 02:48:29;;;;;;;12.20;7.30;;;;;;;4.17;100.00;152434.13;4988544;28;20460;-77
2024/01/01 02:50:56;;;;;;;11.20;8.33;;;;;;;4.18;100.00;152437.97;4965715;28;21050;-76
2024/01/01 02:53:23;;;;;;;14.90;7.70;;;;;;;4.20;100.00;152441.84;4988396;28;20454;-76
2024/01/01 02:55:50;;;;;;;12.40;7.20;;;;;;;4.21;100.00;152445.69;4989303;28;20523;-76
2024/01/01 02:58:19;;;;;;;10.80;6.87;;;;;;;4.22;100.00;152447.00;4956126;28;20464;-76
2024/01/01 03:00:47;;;;;;;10.53;7.83;;;;;;;4.21;100.00;152445.69;4966076;28;20508;-76
2024/01/01 03:03:14;;;;;;;11.80;7.33;;;;;;;4.20;100.00;152443.16;5021841;23;20495;-75
2024/01/01 03:05:41;;;;;;;10.10;7.63;;;;;;;4.18;100.00;152437.97;4987841;28;20465;-76
2024/01/01 03:08:09;;;;;;;11.40;7.90;;;;;;;4.16;100.00;152432.81;4991272;28;20814;-76
2024/01/01 03:10:35;;;;;;;9.77;6.50;;;;;;;4.13;100.00;152425.09;4980772;28;21028;-76
2024/01/01 03:13:02;;;;;;;11.60;8.43;;;;;;;4.09;100.00;152413.50;5005243;28;20487;-75
2024/01/01 03:15:30;;;;;;;12.47;7.47;;;;;;;4.06;100.00;152407.06;4963764;28;20801;-75
2024/01/01 03:17:57;;;;;;;20.13;14.63;;;;;;;4.02;100.00;152395.50;4986687;28;20549;-76
2024/01/01 03:20:27;;;;;;;48.13;33.00;;;;;;;3.99;100.00;152389.06;4982120;28;20515;-75
2024/01/01 03:22:53;;;;;;;33.57;22.63;;;;;;;3.98;100.00;152386.47;4990126;28;20515;-75
2024/01/01 03:25:20;;;;;;;14.80;10.93;;;;;;;4.00;100.00;152390.31;4971196;28;20492;-75
2024/01/01 03:27:47;;;;;;;9.97;7.97;;;;;;;4.01;100.00;152392.91;4986859;28;20464;-75
2024/01/01 03:30:14;;;;;;;11.93;8.70;;;;;;;4.03;100.00;152398.03;4990871;28;20444;-75
2024/01/01 03:32:41;;;;;;;11.17;7.33;;;;;;;4.06;100.00;152405.78;4980754;28;20564;-75
2024/01/01 03:35:08;;;;;;;13.23;7.83;;;;;;;4.08;100.00;152412.22;4999839;28;20448;-76
2024/01/01 03:37:35;;;;;;;10.13;7.90;;;;;;;4.11;100.00;152418.66;4997854;28;20480;-76
2024/01/01 03:40:03;;;;;;;9.57;6.87;;;;;;;4.12;100.00;152421.25;4990952;28;20455;-76
2024/01/01 03:42:30;;;;;;;6.77;5.93;;;;;;;4.12;100.00;152421.25;4997981;28;20457;-76
2024/01/01 03:44:56;;;;;;;12.07;6.70;;;;;;;4.16;100.00;152431.53;4987112;28;20821;-76
2024/01/01 03:47:23;;;;;;;8.53;6.03;;;;;;;4.19;100.00;152439.25;4989662;28;20477;-78
2024/01/01 03:49:51;;;;;;;9.77;5.90;;;;;;;4.19;100.00;152440.56;4993347;28;20448;-76
2024/01/01 03:52:18;;;;;;;9.87;6.00;;;;;;;4.21;100.00;152444.41;4980539;28;20885;-77
2024/01/01 03:54:44;;;;;;;6.80;5.30;;;;;;;4.21;100.00;152444.41;4989208;28;20872;-77
2024/01/01 03:57:11;;;;;;;7.60;5.57;;;;;;;4.21;100.00;152444.41;4987153;28;20464;-77
2024/01/01 03:59:38;;;;;;;6.63;4.40;;;;;;;4.22;100.00;152447.00;4974532;28;20551;-76
2024/01/01 04:02:05;;;;;;;8.00;4.87;;;;;;;4.21;100.00;152445.69;4966846;28;20975;-77
2024/01/01 04:04:32;;;;;;;6.20;4.53;;;;;;;4.22;100.00;152448.28;4988471;28;20476;-76
2024/01/01 04:07:00;;;;;;;6.90;4.97;;;;;;;4.20;100.00;152443.16;4989131;28;20973;-77
2024/01/01 04:09:26;;;;;;;7.80;4.40;;;;;;;4.20;100.00;152443.16;4971180;28;20437;-77
2024/01/01 04:11:53;;;;;;;6.00;3.83;;;;;;;4.18;100.00;152436.72;4972440;28;20445;-77
2024/01/01 04:14:20;;;;;;;5.70;3.33;;;;;;;4.15;100.00;152428.97;5001411;28;20865;-77
2024/01/01 04:16:46;;;;;;;4.70;3.97;;;;;;;4.11;100.00;152418.66;4996884;28;20480;-76
2024/01/01 04:19:13;;;;;;;7.67;3.00;;;;;;;4.10;100.00;152417.34;4970819;28;20465;-76
2024/01/01 04:21:40;;;;;;;3.87;2.70;;;;;;;4.08;100.00;152412.22;4978253;28;20990;-77
2024/01/01 04:24:08;;;;;;;4.40;3.00;;;;;;;4.07;100.00;152408.38;5011168;28;20460;-76
2024/01/01 04:26:35;;;;;;;5.47;2.90;;;;;;;4.07;100.00;152408.38;5010380;28;20555;-76
2024/01/01 04:29:01;;;;;;;3.23;2.20;;;;;;;4.05;100.00;152403.22;5016005;28;20460;-76
2024/01/01 04:31:28;;;;;;;4.93;2.80;;;;;;;4.03;100.00;152398.03;4982503;28;20460;-77
2024/01/01 04:33:56;;;;;;;3.00;2.10;;;;;;;4.02;100.00;152395.50;5001876;28;20450;-77
2024/01/01 04:36:23;;;;;;;3.60;2.30;;;;;;;4.02;100.00;152395.50;4956493;28;20956;-77
2024/01/01 04:38:49;;;;;;;3.70;2.23;;;;;;;4.01;100.00;152394.19;4989314;28;20449;-77
2024/01/01 04:41:17;;;;;;;3.50;1.87;;;;;;;4.00;100.00;152390.31;4988999;28;20456;-76
2024/01/01 04:43:44;;;;;;;2.73;1.50;;;;;;;3.97;100.00;152382.63;4993226;28;20456;-77
2024/01/01 04:46:11;;;;;;;2.37;1.60;;;;;;;3.94;100.00;152376.19;5010710;28;20499;-77
2024/01/01 04:48:37;;;;;;;3.63;1.80;;;;;;;3.92;100.00;152369.75;4993932;28;20460;-77
2024/01/01 04:51:05;;;;;;;2.70;1.73;;;;;;;3.86;100.00;152355.56;4987943;28;20984;-76
2024/01/01 04:53:31;;;;;;;2.93;1.87;;;;;;;3.86;100.00;152354.28;4993345;28;20456;-76
2024/01/01 04:55:58;;;;;;;3.30;2.50;;;;;;;3.87;100.00;152356.81;4992891;28;20452;-77
2024/01/01 04:58:26;;;;;;;4.90;3.90;;;;;;;3.86;100.00;152355.56;4994101;28;20992;-77
2024/01/01 05:00:52;;;;;;;3.77;2.30;;;;;;;3.84;100.00;152350.41;4991273;28;20452;-77
2024/01/01 05:03:19;;;;;;;2.00;1.33;;;;;;;3.85;100.00;152351.69;4990782;28;20480;-77
2024/01/01 05:05:45;;;;;;;3.17;1.73;;;;;;;3.87;100.00;152356.81;4997017;28;20488;-76
2024/01/01 05:08:12;;;;;;;3.30;1.80;;;;;;;3.86;100.00;152354.28;5003649;28;20491;-76
2024/01/01 05:10:40;;;;;;;2.47;1.30;;;;;;;3.89;100.00;152362.00;4970787;28;20445;-77
2024/01/01 05:13:07;;;;;;;3.33;1.47;;;;;;;3.89;100.00;152362.00;5004770;28;20919;-76
2024/01/01 05:15:35;;;;;;;3.07;1.33;;;;;;;3.86;100.00;152354.28;4962968;28;20461;-76
2024/01/01 05:18:01;;;;;;;1.70;1.30;;;;;;;3.85;100.00;152351.69;4973724;28;20465;-77
2024/01/01 05:20:28;;;;;;;2.63;1.57;;;;;;;3.89;100.00;152363.25;4985707;28;20813;-77
2024/01/01 05:22:54;;;;;;;1.97;1.50;;;;;;;3.88;100.00;152359.44;4964863;28;20487;-76
2024/01/01 05:25:21;;;;;;;3.40;1.17;;;;;;;3.86;100.00;152354.28;4995007;28;20464;-77
2024/01/01 05:27:48;;;;;;;2.33;1.20;;;;;;;3.85;100.00;152351.69;5009271;28;20479;-77
2024/01/01 05:30:15;;;;;;;2.73;1.33;;;;;;;3.79;100.00;152336.22;5010876;28;20807;-77
2024/01/01 05:32:43;;;;;;;2.20;1.27;;;;;;;3.74;100.00;152324.66;4974812;28;20990;-77
2024/01/01 05:35:09;;;;;;;1.53;1.10;;;;;;;3.72;100.00;152319.50;4982364;28;20807;-77
2024/01/01 05:37:36;;;;;;;3.17;1.53;;;;;;;3.69;100.00;152313.09;4979865;28;20465;-77
2024/01/01 05:40:03;;;;;;;5.00;2.43;;;;;;;3.65;100.00;152302.75;4991531;28;20968;-77
2024/01/01 05:42:31;;;;;;;2.77;1.87;;;;;;;3.65;100.00;152302.75;4991085;28;20464;-77
2024/01/01 05:44:58;;;;;;;2.50;1.70;;;;;;;3.63;100.00;152297.63;4970122;28;20495;-77
2024/01/01 05:47:24;;;;;;;3.00;1.77;;;;;;;3.62;100.00;152293.78;4975513;28;20448;-77
2024/01/01 05:49:54;;;;;;;3.20;2.27;;;;;;;3.60;100.00;152289.88;5008358;28;20850;-77
2024/01/01 05:52:21;;;;;;;3.33;2.13;;;;;;;3.58;100.00;152284.75;4992078;28;20502;-77
2024/01/01 05:54:48;;;;;;;2.63;1.73;;;;;;;3.57;100.00;152282.16;4984802;28;20504;-76
2024/01/01 05:57:15;;;;;;;3.37;2.00;;;;;;;3.56;100.00;152279.63;4991799;28;20450;-77
2024/01/01 05:59:41;;;;;;;2.40;1.93;;;;;;;3.57;100.00;152282.16;5005153;28;20881;-77
2024/01/01 06:02:08;;;;;;;2.50;1.63;;;;;;;3.60;100.00;152289.88;4979691;28;20836;-77
2024/01/01 06:04:34;;;;;;;3.47;1.70;;;;;;;3.65;100.00;152301.50;4996336;28;20483;-77
2024/01/01 06:07:02;;;;;;;2.20;1.50;;;;;;;3.65;100.00;152301.50;4997616;28;20790;-77
2024/01/01 06:09:29;;;;;;;3.17;1.80;;;;;;;3.64;100.00;152300.22;4995411;28;20454;-77
2024/01/01 06:11:55;;;;;;;5.07;2.10;;;;;;;3.65;100.00;152302.75;4994485;28;20461;-76
2024/01/01 06:14:24;;;;;;;3.23;1.40;;;;;;;3.68;100.00;152309.19;4998014;28;20460;-76
2024/01/01 06:16:51;;;;;;;6.27;2.20;;;;;;;3.69;100.00;152311.78;4996773;28;20447;-77
2024/01/01 06:19:17;;;;;;;3.23;2.33;;;;;;;3.67;100.00;152307.94;4993932;28;20819;-76
2024/01/01 06:21:44;;;;;;;8.33;5.43;;;;;;;3.67;100.00;152307.94;4999576;28;20456;-77
2024/01/01 06:24:12;;;;;;;5.53;4.47;;;;;;;3.65;100.00;152301.50;4983076;28;20465;-77
2024/01/01 06:26:39;;;;;;;4.20;2.23;;;;;;;3.64;100.00;152300.22;4996375;28;20465;-77
2024/01/01 06:29:06;;;;;;;4.50;2.03;;;;;;;3.66;100.00;152304.06;4992610;28;20966;-77
2024/01/01 06:31:32;;;;;;;5.30;2.30;;;;;;;3.64;100.00;152300.22;4997301;28;20467;-77
2024/01/01 06:33:59;;;;;;;3.23;1.70;;;;;;;3.63;100.00;152297.63;4996222;28;20454;-77
2024/01/01 06:36:25;;;;;;;3.03;2.00;;;;;;;3.62;100.00;152295.06;4992342;28;20463;-77
2024/01/01 06:38:52;;;;;;;2.57;1.87;;;;;;;3.59;100.00;152287.34;4995117;28;20535;-77
2024/01/01 06:41:20;;;;;;;4.73;1.63;;;;;;;3.57;100.00;152282.16;4989850;28;20839;-77
2024/01/01 06:43:46;;;;;;;4.00;2.03;;;;;;;3.54;100.00;152274.47;4991107;28;20472;-76
2024/01/01 06:46:13;;;;;;;3.93;1.87;;;;;;;3.54;100.00;152274.47;4996381;28;20476;-76
2024/01/01 06:48:39;;;;;;;3.67;1.80;;;;;;;3.54;100.00;152273.19;4996486;28;20457;-76
2024/01/01 06:51:09;;;;;;;2.50;1.90;;;;;;;3.56;100.00;152278.31;4998867;28;20884;-76
2024/01/01 06:53:36;;;;;;;2.33;1.43;;;;;;;3.56;100.00;152279.63;4993199;28;20460;-77
2024/01/01 06:56:03;;;;;;;3.03;1.43;;;;;;;3.59;100.00;152287.34;4977804;28;20442;-76
2024/01/01 06:58:31;;;;;;;4.33;1.73;;;;;;;3.59;100.00;152287.34;4996489;28;20456;-75
2024/01/01 07:00:57;;;;;;;4.03;1.10;;;;;;;3.58;100.00;152284.75;4979525;28;20460;-77
2024/01/01 07:03:24;;;;;;;2.57;1.57;;;;;;;3.56;100.00;152279.63;4996376;28;21054;-77
2024/01/01 07:05:50;;;;;;;3.20;0.80;;;;;;;3.55;100.00;152277.03;4998881;28;20476;-77
2024/01/01 07:08:17;;;;;;;2.67;1.10;;;;;;;3.55;100.00;152277.03;4996676;28;20555;-77
2024/01/01 07:10:43;;;;;;;2.67;1.30;;;;;;;3.54;100.00;152274.47;4992928;28;20453;-77
2024/01/01 07:13:10;;;;;;;2.87;0.87;;;;;;;3.50;100.00;152264.16;4995546;28;20457;-76
2024/01/01 07:15:38;;;;;;;1.20;0.83;;;;;;;3.48;100.00;152257.72;4978330;28;20578;-82
2024/01/01 07:18:05;;;;;;;2.20;1.30;;;;;;;3.45;100.00;152250.00;4986471;28;20459;-82
2024/01/01 07:20:31;;;;;;;1.80;1.13;;;;;;;3.45;100.00;152250.00;4972763;28;20480;-80
2024/01/01 07:22:58;;;;;;;3.13;1.43;;;;;;;3.46;100.00;152252.59;4992770;28;20506;-76
2024/01/01 07:25:25;;;;;;;2.23;1.30;;;;;;;3.48;100.00;152257.72;4994492;28;20491;-77
2024/01/01 07:27:51;;;;;;;3.10;1.00;;;;;;;3.49;100.00;152261.59;4977816;28;20465;-75
2024/01/01 07:30:18;;;;;;;4.60;1.27;;;;;;;3.49;100.00;152260.31;4972251;28;20516;-76
2024/01/01 07:32:46;;;;;;;4.97;1.10;;;;;;;3.50;100.00;152264.16;4990006;28;20471;-76
2024/01/01 07:35:12;;;;;;;4.77;1.23;;;;;;;3.50;100.00;152264.16;4977920;28;20470;-76
2024/01/01 07:37:39;;;;;;;2.13;1.33;;;;;;;3.51;100.00;152265.44;4989779;28;20813;-76
2024/01/01 07:40:07;;;;;;;2.13;1.17;;;;;;;3.54;100.00;152273.19;4991872;28;20459;-76
2024/01/01 07:42:34;;;;;;;2.73;1.10;;;;;;;3.56;100.00;152279.63;4993043;28;20461;-77
2024/01/01 07:45:00;;;;;;;1.90;0.90;;;;;;;3.55;100.00;152277.03;4993453;28;20450;-76
2024/01/01 07:47:28;;;;;;;2.10;0.97;;;;;;;3.57;100.00;152280.91;4997377;28;20576;-76
2024/01/01 07:49:56;;;;;;;2.43;1.20;;;;;;;3.56;100.00;152279.63;4970652;28;20981;-76
2024/01/01 07:52:23;;;;;;;4.20;1.33;;;;;;;3.59;100.00;152287.34;4977522;28;20457;-76
2024/01/01 07:54:55;;;;;;;1.77;1.00;;;;;;;3.63;100.00;152297.63;4979329;28;20452;-76
2024/01/01 07:57:21;;;;;;;5.30;1.10;;;;;;;3.68;100.00;152310.50;4995401;28;20879;-76
2024/01/01 07:59:48;;;;;;;5.40;1.00;;;;;;;3.73;100.00;152322.13;4995945;28;20460;-76
2024/01/01 08:02:15;;;;;;;2.83;1.07;;;;;;;3.79;100.00;152336.22;4994371;28;20543;-76
2024/01/01 08:04:41;;;;;;;2.50;0.90;;;;;;;3.83;100.00;152346.56;4978591;28;20832;-76
2024/01/01 08:07:09;;;;;;;2.63;0.90;;;;;;;3.85;100.00;152351.69;4997093;28;21136;-76
2024/01/01 08:09:36;;;;;;;1.70;1.00;;;;;;;3.87;100.00;152356.81;4994291;28;20778;-77
2024/01/01 08:12:03;;;;;;;2.33;1.30;;;;;;;3.84;100.00;152350.41;4995064;28;20538;-76
2024/01/01 08:14:29;;;;;;;2.43;1.30;;;;;;;3.83;100.00;152346.56;4999127;28;20464;-76
2024/01/01 08:16:56;;;;;;;6.23;1.47;;;;;;;3.85;100.00;152353.00;4999215;28;20468;-77
2024/01/01 08:19:23;;;;;;;3.10;0.93;;;;;;;3.87;100.00;152356.81;4998084;28;20467;-77
2024/01/01 08:21:49;;;;;;;2.30;1.00;;;;;;;3.89;100.00;152362.00;5001598;28;20464;-76
2024/01/01 08:24:17;;;;;;;4.50;1.13;;;;;;;3.92;100.00;152371.00;4982574;28;20461;-77
2024/01/01 08:26:44;;;;;;;5.07;1.00;;;;;;;3.94;100.00;152374.88;5000503;28;20478;-76
2024/01/01 08:29:12;;;;;;;3.37;1.10;;;;;;;4.02;100.00;152395.50;5000745;28;20456;-76
2024/01/01 08:31:38;;;;;;;4.90;1.00;;;;;;;4.03;100.00;152398.03;5001025;28;20453;-76
2024/01/01 08:34:05;;;;;;;2.13;0.80;;;;;;;4.09;100.00;152413.50;4992623;28;21014;-76
2024/01/01 08:36:32;;;;;;;1.67;0.77;;;;;;;4.17;100.00;152434.13;4981185;28;20444;-76
2024/01/01 08:38:58;;;;;;;2.90;1.10;;;;;;;4.23;100.00;152449.59;4981680;28;21198;-76
2024/01/01 08:41:26;;;;;;;2.33;0.93;;;;;;;4.31;100.00;152470.19;4999110;28;20962;-76
2024/01/01 08:43:56;;;;;;;2.03;1.13;;;;;;;4.38;100.00;152486.91;4981103;28;20897;-76
2024/01/01 08:46:26;;;;;;;3.30;1.10;;;;;;;4.43;100.00;152501.09;4984734;28;20472;-76
2024/01/01 08:48:53;;;;;;;5.57;1.00;;;;;;;4.49;100.00;152516.56;4987815;28;20452;-76
2024/01/01 08:51:20;;;;;;;3.07;1.10;;;;;;;4.58;100.00;152539.72;4976513;28;20442;-76
2024/01/01 08:53:46;;;;;;;1.80;1.10;;;;;;;4.65;100.00;152556.50;5000129;28;20465;-76
2024/01/01 08:56:13;;;;;;;2.97;1.17;;;;;;;4.69;100.00;152566.78;4980956;28;20484;-76
2024/01/01 08:58:41;;;;;;;1.33;0.90;;;;;;;4.73;100.00;152578.41;4984922;28;20473;-76
2024/01/01 09:01:08;;;;;;;2.50;0.87;;;;;;;4.76;100.00;152586.16;5002575;28;20488;-81
2024/01/01 09:03:34;;;;;;;1.57;1.10;;;;;;;4.76;100.00;152586.16;4999267;28;21065;-82
2024/01/01 09:06:01;;;;;;;4.63;0.90;;;;;;;4.76;100.00;152586.16;4996859;28;20469;-81
2024/01/01 09:08:28;;;;;;;2.63;1.10;;;;;;;4.81;100.00;152599.03;4997796;28;20461;-82
2024/01/01 09:10:55;;;;;;;1.70;1.10;;;;;;;4.83;100.00;152604.16;4995958;28;20566;-81
2024/01/01 09:13:21;;;;;;;2.60;1.30;;;;;;;4.86;100.00;152611.91;4998939;28;20459;-81
2024/01/01 09:15:49;;;;;;;3.27;1.53;;;;;;;4.91;100.00;152623.50;4999718;28;20457;-81
2024/01/01 09:18:16;;;;;;;4.93;1.10;;;;;;;4.97;100.00;152637.69;4999956;28;20457;-81
2024/01/01 09:20:43;;;;;;;1.70;0.90;;;;;;;5.05;100.00;152658.31;4998524;28;20488;-81
2024/01/01 09:23:09;;;;;;;2.27;1.07;;;;;;;5.11;100.00;152673.78;4980219;28;20574;-81
2024/01/01 09:25:39;;;;;;;7.33;0.90;;;;;;;5.17;100.00;152689.22;4977166;28;20533;-81
2024/01/01 09:28:05;;;;;;;2.03;0.90;;;;;;;5.21;100.00;152699.56;4981541;28;20453;-82
2024/01/01 09:30:32;;;;;;;2.17;0.90;;;;;;;5.21;100.00;152699.56;4981404;28;20452;-82
2024/01/01 09:33:00;;;;;;;4.13;1.20;;;;;;;5.27;100.00;152715.03;5000675;28;20528;-82
2024/01/01 09:35:26;;;;;;;1.50;0.80;;;;;;;5.36;100.00;152738.22;4985352;28;20493;-81
2024/01/01 09:37:53;;;;;;;5.47;0.90;;;;;;;5.38;100.00;152743.34;5002478;28;20461;-81
2024/01/01 09:40:20;;;;;;;5.33;1.03;;;;;;;5.40;100.00;152748.56;4981930;28;20545;-81
2024/01/01 09:43:18;;;;;;;2.07;1.17;;;;;;;5.38;100.00;152743.34;4995832;28;20764;-81
2024/01/01 09:45:47;;;;;;;2.30;1.10;;;;;;;5.40;100.00;152748.56;4957073;28;20893;-82
2024/01/01 09:48:15;;;;;;;2.10;0.90;;;;;;;5.41;100.00;152752.41;4971869;28;20515;-81
2024/01/01 09:50:42;;;;;;;1.17;0.70;;;;;;;5.45;100.00;152761.44;4989430;28;20449;-82
2024/01/01 09:53:09;;;;;;;2.00;0.83;;;;;;;5.51;100.00;152778.19;4999115;28;20506;-82
2024/01/01 09:55:36;;;;;;;3.73;1.70;;;;;;;5.60;100.00;152800.09;4999200;28;20485;-82
2024/01/01 09:58:05;;;;;;;3.20;1.03;;;;;;;5.70;100.00;152824.59;4983524;28;20544;-81
2024/01/01 10:00:31;;;;;;;1.57;0.87;;;;;;;5.71;100.00;152827.19;4980876;28;20453;-82
2024/01/01 10:03:07;;;;;;;1.00;0.50;;;;;;;5.68;100.00;152820.75;4988594;28;20556;-81
2024/01/01 10:05:35;;;;;;;1.90;0.80;;;;;;;5.69;100.00;152823.34;4997178;28;20476;-82
2024/01/01 10:08:09;;;;;;;1.17;0.53;;;;;;;5.70;100.00;152825.88;5001839;28;20484;-82
2024/01/01 10:10:36;;;;;;;1.90;0.87;;;;;;;5.70;100.00;152824.59;4978178;28;20460;-81
2024/01/01 10:13:08;;;;;;;2.60;1.00;;;;;;;5.68;100.00;152820.75;4980930;28;20512;-81
2024/01/01 10:15:36;;;;;;;2.67;1.13;;;;;;;5.70;100.00;152825.88;4997248;28;20444;-82
2024/01/01 10:18:10;;;;;;;1.43;0.70;;;;;;;5.69;100.00;152822.03;4971565;28;20485;-82
2024/01/01 10:21:13;;;;;;;6.63;0.87;;;;;;;5.67;100.00;152818.16;4998071;28;20456;-82
2024/01/01 10:23:39;;;;;;;2.20;0.80;;;;;;;5.71;100.00;152828.47;4957755;28;20540;-82
2024/01/01 10:26:07;;;;;;;3.13;0.80;;;;;;;5.72;100.00;152831.03;4996349;28;20993;-82
2024/01/01 10:28:36;;;;;;;2.00;0.90;;;;;;;5.74;100.00;152834.94;4982868;28;20538;-82
2024/01/01 10:31:03;;;;;;;1.53;0.70;;;;;;;5.75;100.00;152837.47;4998700;28;20860;-82
2024/01/01 10:33:32;;;;;;;3.50;1.00;;;;;;;5.78;100.00;152846.53;4985229;28;20551;-82
2024/01/01 10:36:00;;;;;;;1.87;1.07;;;;;;;5.80;100.00;152851.66;5001540;28;20457;-82
2024/01/01 10:41:57;;;;;;;3.97;0.87;;;;;;;5.90;100.00;152877.56;4995035;28;20567;-82
2024/01/01 10:44:24;;;;;;;3.00;0.97;;;;;;;5.92;100.00;152882.69;4980137;28;20549;-82
2024/01/01 10:46:55;;;;;;;1.50;0.97;;;;;;;5.93;100.00;152885.25;4985255;28;20480;-82
2024/01/01 10:49:26;;;;;;;2.07;1.33;;;;;;;5.96;100.00;152893.00;4995285;28;20443;-82
2024/01/01 10:52:03;;;;;;;2.70;0.80;;;;;;;6.01;100.00;152904.66;4996330;28;20461;-82
2024/01/01 10:54:40;;;;;;;1.70;0.70;;;;;;;6.03;100.00;152909.78;4984332;28;20445;-82
2024/01/01 10:57:23;;;;;;;1.80;0.80;;;;;;;6.06;100.00;152917.53;4999466;28;20460;-82
2024/01/01 10:59:54;;;;;;;3.23;0.97;;;;;;;6.05;100.00;152916.25;4999213;28;20461;-82
2024/01/01 11:02:21;;;;;;;4.67;1.23;;;;;;;6.05;100.00;152914.94;4985707;28;20435;-82
2024/01/01 11:04:53;;;;;;;3.73;0.97;;;;;;;6.05;100.00;152916.25;4998021;28;20453;-82
2024/01/01 11:07:53;;;;;;;2.40;1.00;;;;;;;6.08;100.00;152922.69;4996761;28;20562;-82
2024/01/01 11:10:34;;;;;;;1.43;0.60;;;;;;;6.09;100.00;152926.53;4987829;28;20527;-82
2024/01/01 11:13:03;;;;;;;3.90;1.60;;;;;;;6.10;100.00;152929.13;4997614;28;20456;-82
2024/01/01 11:15:40;;;;;;;5.60;1.13;;;;;;;6.14;100.00;152938.19;4986011;28;20457;-82
2024/01/01 11:18:17;;;;;;;2.33;1.00;;;;;;;6.13;100.00;152936.88;5001350;28;20444;-82
2024/01/01 11:20:48;;;;;;;1.77;0.97;;;;;;;6.16;100.00;152943.31;5004785;28;20966;-82
2024/01/01 11:23:39;;;;;;;3.33;0.90;;;;;;;6.21;100.00;152954.94;4990175;28;21011;-82
2024/01/01 11:26:26;;;;;;;3.80;1.13;;;;;;;6.20;100.00;152952.31;4984001;28;20468;-82
2024/01/01 11:28:55;;;;;;;8.73;1.00;;;;;;;6.22;100.00;152958.81;4996252;28;20940;-82